Gorman, Texas
Current Conditions -  °F | °C
As of 7:55 PM on Saturday 20 Dec 2014 (Local Time) from KMKN Reporting Station
Overcast Overcast  
Wind Chill: 43°   Ceiling: 2000
Heat Index: 46°   Visibility: 10mi
Dew Point: 42°   Wind: 7mph
Humidity: 85%   Direction: 120°ESE
Pressure: 30.16"   Gusts: NA
Location:  32.21°N, 98.67°W
Report Text: KMKN 210155Z AUTO 12006KT 10SM OVC020 08/06 A3016 RMK AO2 T00800056
Loading
Personal Weather Stations






























Interactive Weather Map New forecast layout! Learn more

10-Day Weather Forecast

Advertisements
Track Severe Weather on mobile